Camapua, Brazil
Current Conditions -  °F | °C
As of 1:00 PM on Saturday 25 Oct 2014 (Local Time) from SBPP Reporting Station
Broken Clouds Broken Clouds  
Wind Chill: 27°   Ceiling: 2500
Heat Index: 28°   Visibility: 6mi
Dew Point: 19°   Wind: 0mph
Humidity: 61%   Direction: NA
Pressure: 29.97"   Gusts: NA
Location:  19.53°S, 54.04°W
Report Text: SBPP 251600Z 00000KT 9999 BKN025 27/19 Q1015
Loading
Personal Weather Stations






























Interactive Weather Map
Tropical Storm Tracking
New forecast layout! Learn more

10-Day Weather Forecast

Advertisements
Track Severe Weather on mobile